Time;durP1;ratioP1;P1;durP2;ratioP2;P2;SDS_P1;SDS_P2;PMS_P1;PMS_P2;Temp;Humidity;BMP_temperature;BMP_pressure;BME280_temperature;BME280_humidity;BME280_pressure;Samples;Min_cycle;Max_cycle;Signal;HPM_P1;HPM_P2
2021/08/26 00:00:57;;;;;;;3.92;1.92;;;;;;;13.12;87.81;100188.47;8601968;34;20181;-72
2021/08/26 00:06:01;;;;;;;9.73;3.13;;;;;;;13.31;87.65;100197.50;8602617;34;20243;-72
2021/08/26 00:11:06;;;;;;;3.13;2.40;;;;;;;13.45;87.44;100188.97;8602940;34;20886;-71
2021/08/26 00:16:10;;;;;;;8.40;3.05;;;;;;;13.41;86.94;100191.09;8602453;34;20165;-72
2021/08/26 00:21:15;;;;;;;5.47;2.88;;;;;;;13.36;86.96;100174.47;8602801;34;20153;-71
2021/08/26 00:26:18;;;;;;;5.63;2.75;;;;;;;13.07;86.69;100177.25;8602562;34;20259;-72
2021/08/26 00:31:20;;;;;;;4.88;3.08;;;;;;;13.30;86.81;100177.75;8602083;34;20238;-72
2021/08/26 00:36:25;;;;;;;5.40;3.03;;;;;;;13.23;86.16;100173.94;8601692;34;20768;-72
2021/08/26 00:41:28;;;;;;;4.95;3.33;;;;;;;13.38;86.23;100150.06;8600739;34;20639;-72
2021/08/26 00:46:31;;;;;;;7.93;3.67;;;;;;;13.20;85.64;100156.22;8600357;34;20276;-72
2021/08/26 00:51:36;;;;;;;6.32;3.05;;;;;;;13.11;84.97;100145.44;8600678;34;20193;-72
2021/08/26 00:56:40;;;;;;;6.55;3.10;;;;;;;12.89;84.80;100144.81;8600370;34;20616;-71
2021/08/26 01:01:54;;;;;;;6.03;3.13;;;;;;;13.15;84.43;100146.88;8600719;34;20647;-71
2021/08/26 01:07:05;;;;;;;5.80;2.50;;;;;;;13.12;83.85;100152.56;8600752;34;20142;-71
2021/08/26 01:12:10;;;;;;;6.45;2.75;;;;;;;12.93;84.61;100153.44;8600636;34;20496;-71
2021/08/26 01:17:18;;;;;;;6.43;2.65;;;;;;;13.21;84.28;100151.66;8599920;34;20799;-71
2021/08/26 01:22:26;;;;;;;3.70;2.60;;;;;;;13.16;84.41;100157.47;8600136;34;21900;-71
2021/08/26 01:27:36;;;;;;;7.45;4.38;;;;;;;13.04;85.05;100155.97;8599324;34;20234;-71
2021/08/26 01:32:39;;;;;;;6.40;2.45;;;;;;;12.97;85.01;100158.41;8599481;34;20619;-71
2021/08/26 01:37:42;;;;;;;8.10;3.15;;;;;;;13.13;85.74;100152.38;8599191;34;20462;-71
2021/08/26 01:42:47;;;;;;;4.65;2.78;;;;;;;13.13;85.84;100159.63;8599670;34;20189;-71
2021/08/26 01:47:50;;;;;;;9.45;3.15;;;;;;;12.80;84.12;100151.91;8598644;34;20698;-71
2021/08/26 01:52:53;;;;;;;8.20;2.70;;;;;;;12.90;83.73;100148.34;8598481;34;20245;-71
2021/08/26 01:57:58;;;;;;;6.40;2.72;;;;;;;12.85;84.57;100151.47;8597948;34;20149;-71
2021/08/26 02:03:01;;;;;;;8.35;3.08;;;;;;;12.97;84.37;100149.44;8599092;34;20690;-71
2021/08/26 02:08:05;;;;;;;4.93;3.00;;;;;;;12.87;83.62;100136.00;8598988;34;20184;-71
2021/08/26 02:13:10;;;;;;;8.68;3.35;;;;;;;12.91;84.02;100139.25;8598765;34;20192;-71
2021/08/26 02:18:13;;;;;;;5.50;2.55;;;;;;;12.78;84.74;100129.66;8598875;34;20192;-72
2021/08/26 02:23:16;;;;;;;5.63;2.50;;;;;;;12.73;84.72;100131.09;8599071;34;20173;-71
2021/08/26 02:28:21;;;;;;;11.68;3.47;;;;;;;12.82;85.15;100116.72;8598515;34;22020;-71
2021/08/26 02:33:24;;;;;;;8.45;3.10;;;;;;;12.91;84.77;100123.94;8598422;34;20821;-71
2021/08/26 02:38:27;;;;;;;6.47;2.90;;;;;;;12.66;84.66;100136.19;8598644;34;20272;-71
2021/08/26 02:43:31;;;;;;;6.70;2.55;;;;;;;12.56;84.51;100128.13;8599245;34;20173;-71
2021/08/26 02:48:34;;;;;;;12.23;3.05;;;;;;;12.78;84.22;100126.97;8601279;34;20193;-72
2021/08/26 02:53:37;;;;;;;8.80;3.30;;;;;;;12.66;83.89;100125.41;8598896;34;20185;-72
2021/08/26 02:58:41;;;;;;;6.38;2.85;;;;;;;12.76;84.04;100117.31;8597755;34;20284;-71
2021/08/26 03:03:44;;;;;;;8.20;2.80;;;;;;;12.42;83.15;100117.75;8598383;34;20188;-71
2021/08/26 03:08:47;;;;;;;6.10;2.88;;;;;;;12.40;83.41;100125.16;8602437;34;20185;-70
2021/08/26 03:13:52;;;;;;;8.15;2.88;;;;;;;12.70;83.72;100128.66;8603227;34;20154;-72
2021/08/26 03:18:55;;;;;;;6.72;2.90;;;;;;;12.87;84.21;100122.53;8602493;34;20224;-72
2021/08/26 03:23:58;;;;;;;10.05;3.55;;;;;;;12.56;83.09;100120.03;8602851;34;20191;-73
2021/08/26 03:29:02;;;;;;;11.38;3.08;;;;;;;12.36;82.30;100121.88;8603880;34;20205;-72
2021/08/26 03:34:05;;;;;;;9.55;3.03;;;;;;;12.68;82.91;100111.78;8603723;34;20472;-72
2021/08/26 03:39:08;;;;;;;10.80;3.42;;;;;;;12.67;83.13;100121.72;8602394;34;20149;-72
2021/08/26 03:44:13;;;;;;;10.10;3.22;;;;;;;12.68;83.41;100115.34;8611038;34;20331;-72
2021/08/26 03:49:16;;;;;;;7.38;3.70;;;;;;;12.70;83.06;100115.16;8603170;34;20196;-71
2021/08/26 03:54:19;;;;;;;8.63;3.17;;;;;;;12.71;83.54;100122.28;8602627;34;20248;-72
2021/08/26 03:59:23;;;;;;;13.43;3.72;;;;;;;12.69;82.62;100127.81;8602557;34;20188;-72
2021/08/26 04:04:26;;;;;;;11.02;3.28;;;;;;;12.69;82.97;100122.41;8601828;34;20229;-72
2021/08/26 04:09:29;;;;;;;7.45;2.75;;;;;;;12.73;83.26;100125.69;8603118;34;20970;-71
2021/08/26 04:14:34;;;;;;;10.88;3.47;;;;;;;12.58;83.27;100118.03;8601557;34;20241;-72
2021/08/26 04:19:37;;;;;;;11.60;3.53;;;;;;;12.37;83.06;100115.53;8601073;34;20590;-71
2021/08/26 04:24:41;;;;;;;16.70;3.22;;;;;;;12.59;83.02;100110.81;8601648;34;20187;-71
2021/08/26 04:29:45;;;;;;;11.00;3.83;;;;;;;12.70;82.96;100105.28;8601900;34;20677;-71
2021/08/26 04:34:48;;;;;;;9.00;3.40;;;;;;;12.41;82.55;100102.59;8602642;34;20138;-71
2021/08/26 04:39:51;;;;;;;20.58;4.18;;;;;;;12.60;83.03;100112.50;8602756;34;20203;-71
2021/08/26 04:44:56;;;;;;;12.68;3.30;;;;;;;12.27;82.63;100105.72;8606007;34;21637;-72
2021/08/26 04:49:59;;;;;;;11.27;3.22;;;;;;;12.63;83.31;100114.06;8603240;34;20243;-71
2021/08/26 04:55:02;;;;;;;12.20;3.10;;;;;;;12.58;82.43;100115.34;8602293;34;20247;-71
2021/08/26 05:00:08;;;;;;;12.85;3.83;;;;;;;12.32;82.74;100117.78;8602381;34;20259;-69
2021/08/26 05:05:12;;;;;;;14.40;3.15;;;;;;;12.40;82.86;100127.84;8602854;34;20172;-71
2021/08/26 05:10:15;;;;;;;11.60;3.17;;;;;;;12.68;82.23;100127.97;8602310;34;20757;-71
2021/08/26 05:15:19;;;;;;;9.85;3.10;;;;;;;12.86;83.06;100125.34;8602030;34;20240;-71
2021/08/26 05:20:23;;;;;;;10.95;3.40;;;;;;;13.04;83.55;100129.84;8601908;34;20649;-71
2021/08/26 05:25:26;;;;;;;8.57;3.22;;;;;;;13.17;83.72;100129.53;8601441;34;20201;-71
2021/08/26 05:30:30;;;;;;;13.73;3.55;;;;;;;13.24;83.84;100140.56;8601825;34;20720;-71
2021/08/26 05:35:33;;;;;;;7.00;3.42;;;;;;;13.10;80.79;100135.66;8601908;34;20542;-71
2021/08/26 05:40:37;;;;;;;11.15;3.53;;;;;;;13.19;82.05;100134.78;8600465;34;20186;-71
2021/08/26 05:45:42;;;;;;;8.13;3.25;;;;;;;13.36;83.05;100130.47;8600107;34;20169;-70
2021/08/26 05:50:45;;;;;;;12.90;4.65;;;;;;;13.52;83.56;100136.09;8601102;34;20258;-71
2021/08/26 05:55:48;;;;;;;15.43;3.63;;;;;;;13.56;82.02;100118.59;8600306;34;20235;-72
2021/08/26 06:00:52;;;;;;;14.55;3.85;;;;;;;13.46;79.90;100129.44;8600615;34;20277;-72
2021/08/26 06:05:55;;;;;;;14.88;3.53;;;;;;;13.55;81.01;100126.84;8600750;34;20591;-71
2021/08/26 06:10:58;;;;;;;7.18;3.20;;;;;;;13.68;79.94;100124.63;8601395;34;20184;-71
2021/08/26 06:16:03;;;;;;;8.38;3.17;;;;;;;13.86;80.48;100120.13;8600316;34;20134;-72
2021/08/26 06:21:06;;;;;;;9.75;3.35;;;;;;;14.02;79.14;100119.47;8600913;34;20442;-71
2021/08/26 06:26:09;;;;;;;14.93;2.85;;;;;;;14.37;80.56;100123.16;8600133;34;20418;-71
2021/08/26 06:31:14;;;;;;;8.05;3.08;;;;;;;14.58;77.66;100117.44;8600677;34;21358;-72
2021/08/26 06:36:17;;;;;;;11.13;3.35;;;;;;;14.02;75.96;100122.16;8599785;34;20146;-72
2021/08/26 06:41:20;;;;;;;9.18;3.20;;;;;;;14.07;79.27;100121.69;8602413;34;20187;-71
2021/08/26 06:46:24;;;;;;;11.82;3.08;;;;;;;14.15;77.54;100130.75;8607577;34;20344;-71
2021/08/26 06:51:28;;;;;;;10.57;3.10;;;;;;;14.98;77.91;100129.59;8605839;34;20319;-72
2021/08/26 06:56:31;;;;;;;7.60;2.88;;;;;;;14.78;75.51;100132.50;8604936;34;20188;-71
2021/08/26 07:01:35;;;;;;;8.27;3.00;;;;;;;14.55;76.80;100134.00;8605102;34;20635;-71
2021/08/26 07:06:38;;;;;;;8.60;3.42;;;;;;;14.38;75.54;100146.47;8604824;34;20150;-71
2021/08/26 07:11:41;;;;;;;9.18;4.03;;;;;;;14.95;75.78;100130.75;8604860;34;20183;-71
2021/08/26 07:16:46;;;;;;;11.57;4.05;;;;;;;14.86;74.42;100120.84;8604411;34;20707;-71
2021/08/26 07:21:49;;;;;;;11.40;4.65;;;;;;;14.88;75.70;100112.59;8604461;34;20254;-71
2021/08/26 07:26:52;;;;;;;14.85;4.38;;;;;;;14.68;77.80;100111.97;8604092;34;21390;-72
2021/08/26 07:31:56;;;;;;;12.75;4.53;;;;;;;15.03;73.37;100119.13;8604732;34;20659;-71
2021/08/26 07:36:59;;;;;;;13.00;4.00;;;;;;;15.38;74.44;100109.19;8604622;34;20544;-71
2021/08/26 07:42:03;;;;;;;13.80;4.97;;;;;;;15.84;72.88;100120.53;8604269;34;20580;-71
2021/08/26 07:47:07;;;;;;;11.95;4.25;;;;;;;15.56;71.08;100115.38;8603618;34;20185;-72
2021/08/26 07:52:10;;;;;;;12.88;4.68;;;;;;;15.18;72.67;100103.16;8604829;34;20176;-71
2021/08/26 07:57:13;;;;;;;8.70;3.85;;;;;;;16.19;70.69;100118.56;8604835;34;20208;-71
2021/08/26 08:02:18;;;;;;;11.73;4.40;;;;;;;16.32;71.04;100113.53;8604632;34;20180;-72
2021/08/26 08:07:21;;;;;;;14.27;3.78;;;;;;;16.68;71.07;100118.63;8603411;34;20212;-72
2021/08/26 08:12:24;;;;;;;10.50;3.67;;;;;;;16.61;70.05;100125.72;8604025;34;20327;-71
2021/08/26 08:17:28;;;;;;;12.98;4.15;;;;;;;17.09;68.78;100124.00;8602714;34;20192;-72
2021/08/26 08:22:31;;;;;;;8.95;3.55;;;;;;;17.77;67.69;100117.13;8603145;34;20633;-72
2021/08/26 08:27:35;;;;;;;11.88;3.85;;;;;;;18.45;68.49;100110.09;8602584;34;20832;-72
2021/08/26 08:32:39;;;;;;;7.53;3.60;;;;;;;18.57;68.95;100116.81;8602541;34;21076;-72
2021/08/26 08:37:42;;;;;;;11.85;3.75;;;;;;;17.58;62.42;100123.84;8602338;34;20574;-71
2021/08/26 08:42:45;;;;;;;14.68;4.03;;;;;;;17.28;66.10;100118.19;8605422;34;21865;-73
2021/08/26 08:47:50;;;;;;;12.48;3.53;;;;;;;17.40;66.81;100119.50;8602320;34;21559;-72
2021/08/26 08:52:55;;;;;;;12.40;4.70;;;;;;;18.13;67.25;100129.19;8602582;34;20237;-72
2021/08/26 08:57:57;;;;;;;13.85;4.88;;;;;;;;;;8602206;34;20225;-72
2021/08/26 09:03:03;;;;;;;13.27;4.22;;;;;;;17.73;63.34;100115.81;8602507;34;20196;-73
2021/08/26 09:08:10;;;;;;;10.73;4.20;;;;;;;17.74;64.74;100118.31;8600118;34;20279;-72
2021/08/26 09:13:13;;;;;;;13.00;4.00;;;;;;;17.63;62.94;100119.56;8602247;34;20246;-72
2021/08/26 09:18:19;;;;;;;12.30;3.95;;;;;;;17.63;61.10;100118.72;8601628;34;20280;-73
2021/08/26 09:23:24;;;;;;;11.88;3.88;;;;;;;19.11;58.66;100123.94;8601911;34;20243;-72
2021/08/26 09:28:30;;;;;;;10.75;3.83;;;;;;;18.23;57.73;100122.66;8601479;34;20553;-72
2021/08/26 09:33:51;;;;;;;8.27;3.50;;;;;;;19.26;57.59;100126.69;8601478;34;20235;-72
2021/08/26 09:39:00;;;;;;;10.82;3.55;;;;;;;18.75;57.41;100119.16;8601093;34;20185;-72
2021/08/26 09:44:04;;;;;;;12.93;3.60;;;;;;;18.12;58.68;100113.88;8601177;34;20546;-72
2021/08/26 09:49:12;;;;;;;14.40;4.65;;;;;;;19.13;57.27;100116.44;8601238;34;20464;-72
2021/08/26 09:54:30;;;;;;;8.88;3.70;;;;;;;20.69;54.36;100115.16;8600986;34;20142;-72
2021/08/26 09:59:48;;;;;;;12.48;4.85;;;;;;;21.84;50.47;100091.94;8601344;34;20133;-72
2021/08/26 10:04:54;;;;;;;8.98;3.63;;;;;;;22.34;48.99;100109.72;8600933;34;20173;-72
2021/08/26 10:09:57;;;;;;;15.43;3.95;;;;;;;20.96;50.76;100102.56;8601205;34;20287;-70
2021/08/26 10:15:00;;;;;;;8.90;3.53;;;;;;;20.19;53.72;100106.09;8599889;34;20219;-72
2021/08/26 10:20:07;;;;;;;10.55;3.28;;;;;;;20.35;53.62;100103.13;8601323;34;20153;-72
2021/08/26 10:25:10;;;;;;;12.85;3.28;;;;;;;20.29;53.15;100095.66;8600732;34;20875;-72
2021/08/26 10:30:28;;;;;;;12.70;3.90;;;;;;;19.10;55.97;100097.78;8600349;34;20307;-72
2021/08/26 10:35:33;;;;;;;11.40;3.88;;;;;;;18.85;55.16;100102.63;8599753;34;20327;-72
2021/08/26 10:40:38;;;;;;;10.85;3.35;;;;;;;18.62;56.37;100100.75;8599579;34;20218;-73
2021/08/26 10:45:50;;;;;;;10.25;3.33;;;;;;;18.71;55.62;100106.97;8600991;34;20473;-72
2021/08/26 10:51:15;;;;;;;12.80;3.40;;;;;;;18.86;55.58;100101.59;8599069;34;20223;-73
2021/08/26 10:56:23;;;;;;;10.82;3.35;;;;;;;19.14;55.02;100099.94;8599521;34;21111;-72
2021/08/26 11:01:39;;;;;;;8.98;3.08;;;;;;;19.11;54.76;100102.16;8600088;34;20742;-72
2021/08/26 11:06:46;;;;;;;8.55;3.22;;;;;;;20.15;54.02;100102.03;8599502;34;20188;-72
2021/08/26 11:11:55;;;;;;;8.80;3.30;;;;;;;19.84;52.93;100106.75;8600015;34;20412;-73
2021/08/26 11:17:02;;;;;;;7.70;3.17;;;;;;;19.60;53.92;100098.91;8599521;34;20142;-73
2021/08/26 11:22:09;;;;;;;8.73;2.80;;;;;;;18.49;56.10;100093.22;8600088;34;20505;-73
2021/08/26 11:27:19;;;;;;;11.27;3.20;;;;;;;19.58;54.40;100088.22;8601075;34;20280;-73
2021/08/26 11:32:25;;;;;;;18.83;3.63;;;;;;;19.82;54.50;100088.88;8604316;34;20181;-72
2021/08/26 11:37:32;;;;;;;12.15;3.50;;;;;;;16.73;70.06;100100.81;8603929;34;20363;-73
2021/08/26 11:42:41;;;;;;;9.82;3.53;;;;;;;15.45;75.80;100108.38;8603891;34;20217;-73
2021/08/26 11:47:47;;;;;;;11.18;3.60;;;;;;;15.34;78.40;100107.78;8603784;34;20805;-73
2021/08/26 11:52:54;;;;;;;10.10;3.85;;;;;;;15.40;80.46;100109.88;8603741;34;20446;-73
2021/08/26 11:58:09;;;;;;;11.73;3.72;;;;;;;15.18;82.81;100122.94;8603223;34;20157;-73
2021/08/26 12:03:12;;;;;;;5.03;1.90;;;;;;;13.77;79.81;100090.47;8604224;34;20197;-72
2021/08/26 12:08:17;;;;;;;0.20;0.20;;;;;;;12.78;86.51;100104.50;8607646;34;20181;-73
2021/08/26 12:13:21;;;;;;;7.80;0.55;;;;;;;13.42;87.82;100100.22;8605172;34;20458;-73
2021/08/26 12:18:27;;;;;;;0.20;0.20;;;;;;;13.60;86.20;100100.25;8602935;34;20498;-72
2021/08/26 12:23:33;;;;;;;0.30;0.30;;;;;;;16.22;79.51;100097.41;8604603;34;20189;-74
2021/08/26 12:28:38;;;;;;;0.47;0.47;;;;;;;16.13;77.24;100087.59;8603689;34;20574;-73
2021/08/26 12:33:57;;;;;;;0.32;0.32;;;;;;;16.52;83.27;100093.19;8603468;34;20239;-71
2021/08/26 12:39:02;;;;;;;0.50;0.50;;;;;;;16.68;83.71;100102.34;8602199;34;21110;-73
2021/08/26 12:44:05;;;;;;;1.40;1.05;;;;;;;17.22;78.64;100081.75;8604796;34;20599;-73
2021/08/26 12:49:10;;;;;;;0.75;0.75;;;;;;;18.96;74.93;100072.25;8602158;34;20500;-73
2021/08/26 12:54:15;;;;;;;0.63;0.63;;;;;;;18.57;72.33;100081.44;8602210;34;20239;-73
2021/08/26 12:59:21;;;;;;;0.10;0.10;;;;;;;15.81;88.13;100086.50;8602031;34;20435;-73
2021/08/26 13:04:24;;;;;;;3.72;0.85;;;;;;;14.93;89.04;100100.31;8602062;34;20340;-74
2021/08/26 13:09:34;;;;;;;0.55;0.40;;;;;;;14.67;92.82;100089.47;8602116;34;20220;-74
2021/08/26 13:14:39;;;;;;;1.27;1.17;;;;;;;15.15;92.36;100088.09;8601861;34;20279;-73
2021/08/26 13:19:45;;;;;;;0.20;0.20;;;;;;;15.44;91.94;100090.47;8602286;34;20153;-73
2021/08/26 13:24:51;;;;;;;0.40;0.40;;;;;;;15.86;92.66;100088.72;8593761;34;21232;-73
2021/08/26 13:29:54;;;;;;;1.85;1.27;;;;;;;17.42;94.16;100068.59;8593209;34;20660;-73
2021/08/26 13:34:57;;;;;;;3.75;1.20;;;;;;;19.31;83.19;100081.53;8593073;34;20485;-73
2021/08/26 13:40:02;;;;;;;0.43;0.43;;;;;;;17.75;81.59;100092.03;8596518;34;20565;-72
2021/08/26 13:45:08;;;;;;;0.68;0.68;;;;;;;16.46;81.74;100093.88;8594410;34;20258;-73
2021/08/26 13:50:11;;;;;;;1.85;0.70;;;;;;;16.03;84.97;100090.44;8594923;34;20243;-73
2021/08/26 13:55:17;;;;;;;0.50;0.50;;;;;;;15.74;81.58;100092.72;8593607;34;20360;-72
2021/08/26 14:00:21;;;;;;;0.60;0.60;;;;;;;15.51;81.46;100098.75;8594152;34;20153;-72
2021/08/26 14:05:24;;;;;;;0.47;0.47;;;;;;;14.99;78.85;100091.53;8594068;34;21325;-73
2021/08/26 14:10:29;;;;;;;0.32;0.32;;;;;;;15.12;81.56;100092.97;8593186;34;20193;-72
2021/08/26 14:15:32;;;;;;;1.55;1.05;;;;;;;15.52;79.67;100105.00;8593579;34;20197;-72
2021/08/26 14:20:35;;;;;;;0.22;0.22;;;;;;;15.82;82.98;100104.44;8594086;34;21076;-72
2021/08/26 14:25:40;;;;;;;0.52;0.47;;;;;;;15.61;75.83;100099.47;8598163;34;21021;-73
2021/08/26 14:30:43;;;;;;;0.55;0.55;;;;;;;15.80;78.23;100103.78;8600407;34;20156;-72
2021/08/26 14:35:46;;;;;;;0.50;0.50;;;;;;;17.25;79.90;100097.69;8574844;34;20216;-71
2021/08/26 14:40:50;;;;;;;0.17;0.17;;;;;;;17.80;70.07;100104.06;8600308;34;20457;-71
2021/08/26 14:45:54;;;;;;;0.10;0.10;;;;;;;19.24;63.87;100103.22;8601000;34;20193;-71
2021/08/26 14:50:57;;;;;;;0.50;0.50;;;;;;;20.24;51.96;100104.47;8599825;34;20181;-71
2021/08/26 14:56:01;;;;;;;0.10;0.10;;;;;;;20.71;48.95;100102.19;8599483;34;20189;-71
2021/08/26 15:01:04;;;;;;;0.15;0.15;;;;;;;21.33;48.79;100104.06;8600978;34;20780;-72
2021/08/26 15:06:07;;;;;;;0.30;0.30;;;;;;;21.35;46.19;100107.47;8579833;34;20198;-71
2021/08/26 15:11:13;;;;;;;0.95;0.40;;;;;;;21.02;44.57;100112.69;8601121;34;20640;-71
2021/08/26 15:16:16;;;;;;;0.13;0.13;;;;;;;22.08;44.38;100109.69;8604514;34;20647;-72
2021/08/26 15:21:19;;;;;;;3.85;1.42;;;;;;;22.03;41.93;100093.88;8604454;34;21032;-72
2021/08/26 15:26:24;;;;;;;0.32;0.32;;;;;;;20.95;45.29;100099.00;8604291;34;20149;-72
2021/08/26 15:31:27;;;;;;;0.10;0.10;;;;;;;19.86;47.25;100101.94;8603936;34;20243;-72
2021/08/26 15:36:30;;;;;;;0.30;0.30;;;;;;;21.24;45.00;100094.38;8603917;34;20199;-72
2021/08/26 15:41:35;;;;;;;0.20;0.20;;;;;;;22.26;43.54;100090.75;8603513;34;20559;-72
2021/08/26 15:46:38;;;;;;;0.25;0.25;;;;;;;20.63;45.53;100096.88;8603608;34;20150;-72
2021/08/26 15:51:41;;;;;;;0.30;0.30;;;;;;;20.12;45.66;100097.81;8603996;34;20215;-72
2021/08/26 15:56:49;;;;;;;0.20;0.20;;;;;;;20.34;45.10;100093.25;8604446;34;20574;-72
2021/08/26 16:02:00;;;;;;;0.10;0.10;;;;;;;18.68;48.85;100108.19;8604301;34;20126;-73
2021/08/26 16:07:04;;;;;;;5.88;1.50;;;;;;;18.33;50.33;100107.78;8604381;34;20185;-72
2021/08/26 16:12:09;;;;;;;2.58;0.90;;;;;;;18.74;47.78;100107.44;8603413;34;20321;-72
2021/08/26 16:17:12;;;;;;;1.95;0.80;;;;;;;19.81;46.61;100115.31;8604710;34;20189;-71
2021/08/26 16:22:15;;;;;;;2.63;1.00;;;;;;;19.37;46.74;100110.72;8600834;34;20495;-71
2021/08/26 16:27:20;;;;;;;2.90;0.75;;;;;;;18.57;47.41;100119.53;8602792;34;20736;-71
2021/08/26 16:32:23;;;;;;;3.53;0.75;;;;;;;18.96;46.37;100110.34;8603051;34;20191;-71
2021/08/26 16:37:27;;;;;;;2.88;0.80;;;;;;;18.01;47.71;100111.59;8602170;34;20323;-71
2021/08/26 16:42:31;;;;;;;3.00;0.82;;;;;;;17.86;48.80;100114.19;8601804;34;20269;-71
2021/08/26 16:47:34;;;;;;;1.23;0.70;;;;;;;17.55;49.32;100132.34;8601803;34;20460;-72
2021/08/26 16:52:38;;;;;;;3.60;0.85;;;;;;;17.16;51.53;100144.00;8599120;34;20338;-71
2021/08/26 16:57:43;;;;;;;3.00;0.75;;;;;;;16.89;52.20;100148.75;8602951;34;20189;-72
2021/08/26 17:02:46;;;;;;;2.15;1.02;;;;;;;16.74;52.79;100159.47;8599264;34;20696;-71
2021/08/26 17:07:49;;;;;;;5.05;0.93;;;;;;;16.53;53.33;100164.53;8601570;34;20181;-72
2021/08/26 17:12:54;;;;;;;3.95;1.00;;;;;;;16.27;53.96;100164.69;8602609;34;20227;-72
2021/08/26 17:17:57;;;;;;;3.90;1.33;;;;;;;16.08;54.34;100165.81;8602644;34;20603;-71
2021/08/26 17:23:00;;;;;;;2.85;0.98;;;;;;;16.01;55.27;100157.47;8602235;34;20187;-72
2021/08/26 17:28:06;;;;;;;2.05;0.73;;;;;;;16.36;54.53;100164.50;8602149;34;20663;-72
2021/08/26 17:33:10;;;;;;;3.45;1.05;;;;;;;17.11;52.61;100163.47;8602230;34;20193;-72
2021/08/26 17:38:13;;;;;;;1.55;0.77;;;;;;;17.16;52.03;100169.28;8601502;34;20251;-71
2021/08/26 17:43:17;;;;;;;0.93;0.70;;;;;;;16.65;54.01;100173.16;8601695;34;20352;-72
2021/08/26 17:48:20;;;;;;;1.42;0.73;;;;;;;16.01;55.23;100170.16;8600090;34;20554;-72
2021/08/26 17:53:23;;;;;;;3.92;0.90;;;;;;;15.74;56.49;100182.09;8600331;34;21073;-72
2021/08/26 17:58:31;;;;;;;3.20;0.98;;;;;;;15.54;57.35;100189.63;8599042;34;20682;-72
2021/08/26 18:03:34;;;;;;;1.30;0.90;;;;;;;15.32;58.42;100199.09;8600501;34;20619;-72
2021/08/26 18:08:38;;;;;;;2.72;0.98;;;;;;;15.14;58.83;100200.03;8600747;34;20215;-72
2021/08/26 18:13:42;;;;;;;2.78;1.00;;;;;;;15.04;58.88;100204.69;8601364;34;20183;-72
2021/08/26 18:18:49;;;;;;;1.23;0.70;;;;;;;14.79;59.45;100214.44;8600724;34;20476;-72
2021/08/26 18:23:52;;;;;;;3.33;0.68;;;;;;;14.63;59.38;100217.84;8601406;34;20192;-71
2021/08/26 18:28:57;;;;;;;1.60;0.82;;;;;;;14.54;59.18;100214.22;8602282;34;20263;-72
2021/08/26 18:34:00;;;;;;;2.90;1.15;;;;;;;14.37;60.02;100212.31;8601093;34;20235;-72
2021/08/26 18:39:03;;;;;;;2.72;1.00;;;;;;;14.20;60.56;100226.66;8605167;34;20176;-71
2021/08/26 18:44:07;;;;;;;1.48;0.90;;;;;;;14.08;61.25;100229.56;8606392;34;20255;-72
2021/08/26 18:49:10;;;;;;;2.35;0.80;;;;;;;14.04;61.41;100230.00;8606179;34;20290;-71
2021/08/26 18:54:13;;;;;;;5.75;1.17;;;;;;;14.03;61.98;100237.28;8606066;34;20621;-72
2021/08/26 18:59:18;;;;;;;2.38;1.20;;;;;;;14.03;61.96;100244.53;8606146;34;20188;-73
2021/08/26 19:04:21;;;;;;;2.80;1.10;;;;;;;14.08;62.04;100248.47;8606436;34;20232;-72
2021/08/26 19:09:24;;;;;;;2.92;1.10;;;;;;;14.08;62.07;100255.75;8606047;34;20193;-72
2021/08/26 19:14:28;;;;;;;4.03;0.90;;;;;;;14.01;62.27;100244.66;8605006;34;20191;-72
2021/08/26 19:19:31;;;;;;;1.38;1.00;;;;;;;13.96;62.63;100248.81;8604928;34;20184;-71
2021/08/26 19:24:34;;;;;;;2.00;0.85;;;;;;;13.97;62.41;100254.09;8603108;34;20419;-71
2021/08/26 19:29:39;;;;;;;2.45;0.90;;;;;;;13.89;63.07;100262.91;8603915;34;20696;-71
2021/08/26 19:34:42;;;;;;;4.55;1.17;;;;;;;13.76;63.53;100256.16;8603778;34;20588;-71
2021/08/26 19:39:45;;;;;;;6.95;1.00;;;;;;;13.77;63.85;100260.56;8603596;34;20248;-71
2021/08/26 19:44:50;;;;;;;2.17;1.10;;;;;;;13.77;64.29;100261.44;8603953;34;20560;-72
2021/08/26 19:49:53;;;;;;;2.55;1.67;;;;;;;13.66;64.57;100275.94;8602257;34;20188;-72
2021/08/26 19:54:56;;;;;;;5.57;1.30;;;;;;;13.53;65.40;100286.22;8602543;34;20951;-71
2021/08/26 20:00:00;;;;;;;5.32;1.40;;;;;;;13.22;66.63;100289.09;8602393;34;20689;-71
2021/08/26 20:05:08;;;;;;;3.13;1.20;;;;;;;13.43;66.08;100291.63;8602637;34;20416;-71
2021/08/26 20:10:11;;;;;;;3.70;1.42;;;;;;;13.48;66.00;100291.19;8599564;34;20678;-71
2021/08/26 20:15:17;;;;;;;1.65;1.10;;;;;;;13.56;65.98;100299.41;8601430;34;20654;-71
2021/08/26 20:20:20;;;;;;;2.33;1.20;;;;;;;13.55;66.11;100289.63;8603232;34;20238;-72
2021/08/26 20:25:23;;;;;;;7.55;1.33;;;;;;;13.59;65.85;100298.28;8606303;34;20189;-72
2021/08/26 20:30:29;;;;;;;5.05;1.30;;;;;;;13.40;66.81;100293.75;8603923;34;20197;-72
2021/08/26 20:35:32;;;;;;;5.13;1.67;;;;;;;13.14;67.56;100290.81;8597750;34;20276;-72
2021/08/26 20:40:36;;;;;;;3.45;1.58;;;;;;;13.35;67.60;100293.31;8602213;34;20284;-71
2021/08/26 20:45:40;;;;;;;5.07;1.30;;;;;;;13.30;66.89;100293.72;8601595;34;20238;-72
2021/08/26 20:50:43;;;;;;;4.28;1.33;;;;;;;13.30;67.70;100295.59;8601128;34;21032;-71
2021/08/26 20:55:46;;;;;;;3.70;1.50;;;;;;;13.47;66.85;100292.19;8600844;34;20472;-71
2021/08/26 21:00:51;;;;;;;6.13;1.35;;;;;;;13.21;67.67;100281.97;8600292;34;20176;-71
2021/08/26 21:05:54;;;;;;;1.83;1.48;;;;;;;13.19;68.19;100294.78;8600829;34;20217;-71
2021/08/26 21:10:57;;;;;;;3.40;1.50;;;;;;;13.18;68.15;100294.91;8601773;34;20263;-71
2021/08/26 21:16:01;;;;;;;4.80;1.40;;;;;;;13.17;68.36;100294.06;8600812;34;20197;-71
2021/08/26 21:21:05;;;;;;;8.57;1.85;;;;;;;13.08;68.63;100294.03;8601663;34;20224;-71
2021/08/26 21:26:08;;;;;;;3.70;1.48;;;;;;;13.10;68.89;100292.91;8601387;34;20232;-72
2021/08/26 21:31:12;;;;;;;3.42;1.42;;;;;;;13.34;68.43;100291.63;8601648;34;20865;-71
2021/08/26 21:36:17;;;;;;;2.65;1.45;;;;;;;13.16;68.73;100292.31;8601034;34;20145;-71
2021/08/26 21:41:20;;;;;;;7.15;1.90;;;;;;;13.06;69.05;100288.81;8601777;34;20189;-71
2021/08/26 21:46:24;;;;;;;5.05;1.50;;;;;;;13.12;69.05;100290.94;8601428;34;20181;-71
2021/08/26 21:51:29;;;;;;;6.97;1.77;;;;;;;13.13;69.36;100298.00;8601442;34;21803;-71
2021/08/26 21:56:32;;;;;;;5.85;1.52;;;;;;;13.03;69.31;100295.34;8599382;34;20231;-71
2021/08/26 22:01:37;;;;;;;4.65;1.50;;;;;;;12.83;69.83;100293.63;8599729;34;20156;-72
2021/08/26 22:06:40;;;;;;;3.60;1.58;;;;;;;12.72;70.33;100299.16;8601168;34;20528;-71
2021/08/26 22:11:43;;;;;;;6.57;1.63;;;;;;;12.53;70.96;100302.66;8577165;34;20517;-71
2021/08/26 22:16:48;;;;;;;5.60;1.80;;;;;;;12.61;71.13;100300.13;8601259;34;20762;-71
2021/08/26 22:21:52;;;;;;;5.35;1.70;;;;;;;12.53;71.43;100305.34;8600217;34;20193;-71
2021/08/26 22:26:56;;;;;;;11.30;3.55;;;;;;;12.60;71.29;100301.13;8599994;34;20911;-71
2021/08/26 22:32:00;;;;;;;4.28;1.55;;;;;;;12.71;71.01;100303.69;8600192;34;20172;-72
2021/08/26 22:37:05;;;;;;;4.75;1.50;;;;;;;12.68;71.15;100308.53;8599763;34;20204;-72
2021/08/26 22:42:09;;;;;;;3.53;1.67;;;;;;;12.69;71.12;100297.59;8599760;34;20296;-71
2021/08/26 22:47:13;;;;;;;9.70;2.53;;;;;;;12.48;71.79;100303.09;8598960;34;20276;-70
2021/08/26 22:52:16;;;;;;;7.35;2.00;;;;;;;12.73;71.18;100299.03;8599093;34;21480;-71
2021/08/26 22:57:20;;;;;;;5.72;1.80;;;;;;;12.66;71.24;100308.66;8598218;34;20146;-71
2021/08/26 23:02:24;;;;;;;4.95;1.85;;;;;;;12.62;71.68;100301.84;8598942;34;20728;-71
2021/08/26 23:07:28;;;;;;;4.05;2.08;;;;;;;12.76;71.46;100303.28;8595136;34;20158;-71
2021/08/26 23:12:31;;;;;;;2.65;1.90;;;;;;;12.87;70.80;100311.22;8594907;34;20219;-70
2021/08/26 23:17:36;;;;;;;4.22;1.75;;;;;;;12.94;70.88;100309.66;8592699;34;20284;-70
2021/08/26 23:22:41;;;;;;;5.43;1.63;;;;;;;12.90;70.61;100305.56;8593249;34;20394;-72
2021/08/26 23:27:44;;;;;;;6.18;1.75;;;;;;;12.95;70.74;100308.69;8601472;34;20707;-71
2021/08/26 23:32:48;;;;;;;6.10;1.70;;;;;;;12.99;70.72;100312.78;8603411;34;20246;-71